Blumenau, Brazil
Current Conditions -  °F | °C
As of 8:00 PM on Tuesday 27 Jan 2015 (Local Time) from SBNF Reporting Station
Few Clouds Few Clouds  
Wind Chill: 82°   Ceiling: Unl
Heat Index: 94°   Visibility: 6mi
Dew Point: 81°   Wind: 3mph
Humidity: 94%   Direction: 340°NNW
Pressure: 29.8"   Gusts: NA
Location:  26.92°S, 49.09°W
Report Text: SBNF 272200Z 34003KT 9999 FEW020 28/27 Q1009
Loading
Personal Weather Stations






























Interactive Weather Map New forecast layout! Learn more

10-Day Weather Forecast

Advertisements
Track Severe Weather on mobile